Time;durP1;ratioP1;P1;durP2;ratioP2;P2;SDS_P1;SDS_P2;PMS_P1;PMS_P2;Temp;Humidity;BMP_temperature;BMP_pressure;BME280_temperature;BME280_humidity;BME280_pressure;Samples;Min_cycle;Max_cycle;Signal;HPM_P1;HPM_P2
2021/04/28 00:00:57;;;;;;;1.10;0.73;;;20.70;44.10;;;;;;6246219;28;20185;-69
2021/04/28 00:03:57;;;;;;;0.90;0.65;;;20.70;44.10;;;;;;6245500;28;20041;-69
2021/04/28 00:07:02;;;;;;;1.50;1.00;;;20.70;44.10;;;;;;6245775;28;20476;-69
2021/04/28 00:10:08;;;;;;;0.85;0.70;;;20.60;43.90;;;;;;6245435;28;20029;-70
2021/04/28 00:13:11;;;;;;;0.88;0.68;;;20.60;44.00;;;;;;6245382;28;20036;-69
2021/04/28 00:16:12;;;;;;;1.02;0.63;;;20.70;44.10;;;;;;6245793;28;20467;-69
2021/04/28 00:19:13;;;;;;;1.40;0.90;;;20.60;43.90;;;;;;6243217;28;20496;-70
2021/04/28 00:22:13;;;;;;;1.25;0.85;;;20.60;43.90;;;;;;6245210;28;20105;-69
2021/04/28 00:25:17;;;;;;;1.33;0.80;;;20.60;44.00;;;;;;6244845;28;20036;-69
2021/04/28 00:28:17;;;;;;;3.60;0.98;;;20.70;44.80;;;;;;6244683;28;20108;-69
2021/04/28 00:31:18;;;;;;;1.20;0.82;;;20.70;44.10;;;;;;6245157;28;20033;-69
2021/04/28 00:34:18;;;;;;;1.20;0.70;;;20.60;44.00;;;;;;6244109;28;20135;-69
2021/04/28 00:37:19;;;;;;;1.52;0.93;;;20.60;44.00;;;;;;6245373;28;20037;-69
2021/04/28 00:40:24;;;;;;;0.85;0.68;;;20.70;44.00;;;;;;6243897;28;20033;-69
2021/04/28 00:43:24;;;;;;;1.60;0.68;;;20.70;44.10;;;;;;6244906;28;20061;-69
2021/04/28 00:46:25;;;;;;;0.77;0.68;;;20.60;44.00;;;;;;6245555;28;20582;-69
2021/04/28 00:49:25;;;;;;;0.82;0.80;;;20.60;44.00;;;;;;6244269;28;20063;-69
2021/04/28 00:52:26;;;;;;;1.42;0.90;;;20.70;44.10;;;;;;6244611;28;20025;-69
2021/04/28 00:55:27;;;;;;;1.02;0.70;;;20.60;44.00;;;;;;6244337;28;20026;-69
2021/04/28 00:58:28;;;;;;;1.30;0.68;;;20.70;44.10;;;;;;6243944;28;20041;-69
2021/04/28 01:01:28;;;;;;;1.80;1.00;;;20.70;44.00;;;;;;6244292;28;20024;-69
2021/04/28 01:04:29;;;;;;;1.38;0.90;;;20.70;44.10;;;;;;6244516;28;20018;-69
2021/04/28 01:07:30;;;;;;;1.15;0.90;;;20.70;44.10;;;;;;6244064;28;20109;-69
2021/04/28 01:10:35;;;;;;;0.85;0.65;;;20.70;44.00;;;;;;6244395;28;20101;-69
2021/04/28 01:13:35;;;;;;;0.80;0.60;;;20.70;44.00;;;;;;6243969;28;20121;-69
2021/04/28 01:16:36;;;;;;;1.55;1.02;;;20.60;44.00;;;;;;6243788;28;20123;-69
2021/04/28 01:19:38;;;;;;;1.67;0.90;;;20.70;44.00;;;;;;6243685;28;20169;-69
2021/04/28 01:22:46;;;;;;;2.53;0.60;;;20.70;44.10;;;;;;6243895;28;20095;-69
2021/04/28 01:25:49;;;;;;;0.95;0.70;;;20.70;44.10;;;;;;6243851;28;20525;-69
2021/04/28 01:28:51;;;;;;;1.17;0.70;;;20.70;44.10;;;;;;6243765;28;20025;-69
2021/04/28 01:31:53;;;;;;;1.95;0.70;;;20.70;44.00;;;;;;6243666;28;20034;-69
2021/04/28 01:34:54;;;;;;;0.82;0.68;;;20.70;44.10;;;;;;6243085;28;20448;-69
2021/04/28 01:37:56;;;;;;;1.00;0.77;;;20.70;44.10;;;;;;6243531;28;20559;-69
2021/04/28 01:40:57;;;;;;;1.95;0.88;;;20.60;43.90;;;;;;6243475;28;20494;-69
2021/04/28 01:43:58;;;;;;;1.42;0.90;;;20.70;44.10;;;;;;6243669;28;20034;-69
2021/04/28 01:47:00;;;;;;;1.42;0.90;;;20.60;44.00;;;;;;6243742;28;20034;-69
2021/04/28 01:50:01;;;;;;;1.77;0.90;;;20.70;44.10;;;;;;6243301;28;20116;-69
2021/04/28 01:53:01;;;;;;;1.00;0.70;;;20.70;44.10;;;;;;6243248;28;20030;-69
2021/04/28 01:56:02;;;;;;;1.25;0.80;;;20.70;44.00;;;;;;6243001;28;20420;-69
2021/04/28 01:59:04;;;;;;;1.27;0.80;;;20.60;44.60;;;;;;6243051;28;20038;-69
2021/04/28 02:02:05;;;;;;;1.27;0.90;;;20.70;44.10;;;;;;6243033;28;20373;-69
2021/04/28 02:05:07;;;;;;;0.70;0.60;;;20.70;44.10;;;;;;6242848;28;20060;-69
2021/04/28 02:08:08;;;;;;;1.02;0.68;;;20.70;44.10;;;;;;6243151;28;20017;-69
2021/04/28 02:11:08;;;;;;;1.33;0.73;;;20.70;44.00;;;;;;6242668;28;20170;-69
2021/04/28 02:14:14;;;;;;;0.98;0.75;;;20.60;43.90;;;;;;6242889;28;20053;-69
2021/04/28 02:17:16;;;;;;;1.20;1.00;;;20.70;44.10;;;;;;6242685;28;20033;-69
2021/04/28 02:20:17;;;;;;;1.15;0.85;;;20.60;43.90;;;;;;6242407;28;20037;-69
2021/04/28 02:23:19;;;;;;;1.15;0.88;;;20.70;44.10;;;;;;6242688;28;20538;-69
2021/04/28 02:26:19;;;;;;;1.70;0.98;;;20.60;43.90;;;;;;6243176;28;20107;-69
2021/04/28 02:29:20;;;;;;;1.25;0.70;;;20.70;44.10;;;;;;6242687;28;20477;-69
2021/04/28 02:32:20;;;;;;;1.05;0.70;;;20.70;44.10;;;;;;6243508;28;20036;-69
2021/04/28 02:35:23;;;;;;;1.50;0.90;;;20.60;44.10;;;;;;6242549;28;20045;-70
2021/04/28 02:39:15;;;;;;;1.20;0.80;;;20.60;44.00;;;;;;6240977;28;20041;-69
2021/04/28 02:42:16;;;;;;;1.27;0.90;;;20.60;43.90;;;;;;6190476;28;20393;-70
2021/04/28 02:45:19;;;;;;;1.98;0.80;;;20.70;44.10;;;;;;6191295;28;20026;-69
2021/04/28 02:48:20;;;;;;;0.93;0.80;;;20.60;44.00;;;;;;6242285;28;20356;-69
2021/04/28 02:51:21;;;;;;;1.33;0.80;;;20.60;43.90;;;;;;6242085;28;20099;-69
2021/04/28 02:54:22;;;;;;;1.45;0.88;;;20.60;43.90;;;;;;6242670;28;20038;-69
2021/04/28 02:57:23;;;;;;;1.48;0.90;;;20.60;44.00;;;;;;6242193;28;20041;-69
2021/04/28 03:00:25;;;;;;;1.10;0.88;;;20.60;44.00;;;;;;6242710;28;20022;-69
2021/04/28 03:03:26;;;;;;;2.00;0.95;;;20.60;44.00;;;;;;6240855;28;20033;-69
2021/04/28 03:06:26;;;;;;;1.63;1.13;;;20.60;43.90;;;;;;6246857;28;20077;-69
2021/04/28 03:09:27;;;;;;;1.63;1.00;;;20.60;44.00;;;;;;6246889;28;20064;-69
2021/04/28 03:12:28;;;;;;;1.30;0.90;;;20.60;43.90;;;;;;6246614;28;20029;-69
2021/04/28 03:15:28;;;;;;;1.42;0.90;;;20.60;43.90;;;;;;6246802;28;20092;-69
2021/04/28 03:18:29;;;;;;;1.92;1.17;;;20.60;44.00;;;;;;6246789;28;20082;-69
2021/04/28 03:21:34;;;;;;;1.35;0.80;;;20.60;43.90;;;;;;6246604;28;20392;-69
2021/04/28 03:24:34;;;;;;;1.35;0.95;;;20.60;44.00;;;;;;6246808;28;20039;-69
2021/04/28 03:27:35;;;;;;;1.23;0.90;;;20.60;44.00;;;;;;6246298;28;20034;-69
2021/04/28 03:30:36;;;;;;;1.65;1.00;;;20.60;44.00;;;;;;6246396;28;20029;-69
2021/04/28 03:33:37;;;;;;;1.20;0.90;;;20.60;43.90;;;;;;6246316;28;20075;-69
2021/04/28 03:36:38;;;;;;;2.38;1.02;;;20.60;44.00;;;;;;6246310;28;20060;-69
2021/04/28 03:39:38;;;;;;;1.55;1.00;;;20.60;44.00;;;;;;6246025;28;20045;-69
2021/04/28 03:42:39;;;;;;;1.45;1.08;;;20.60;44.00;;;;;;6246024;28;20088;-70
2021/04/28 03:45:39;;;;;;;1.23;0.90;;;20.60;43.90;;;;;;6246104;28;20028;-70
2021/04/28 03:48:40;;;;;;;1.33;0.68;;;20.60;44.00;;;;;;6245853;28;20097;-69
2021/04/28 03:51:41;;;;;;;1.33;0.95;;;20.60;44.00;;;;;;6245854;28;20025;-69
2021/04/28 03:54:42;;;;;;;1.27;1.10;;;20.60;44.00;;;;;;6245822;28;20442;-69
2021/04/28 03:57:42;;;;;;;1.27;1.00;;;20.60;44.00;;;;;;6245722;28;20033;-69
2021/04/28 04:00:43;;;;;;;1.33;0.90;;;20.60;44.00;;;;;;6245870;28;20397;-69
2021/04/28 04:03:43;;;;;;;1.10;0.90;;;20.60;43.90;;;;;;6246172;28;20083;-69
2021/04/28 04:06:44;;;;;;;1.42;0.85;;;20.60;44.00;;;;;;6245672;28;20033;-69
2021/04/28 04:09:45;;;;;;;1.60;1.00;;;20.60;44.10;;;;;;6245511;28;20088;-69
2021/04/28 04:12:46;;;;;;;1.08;0.90;;;20.60;44.00;;;;;;6245229;28;20033;-69
2021/04/28 04:15:46;;;;;;;1.65;1.13;;;20.60;44.00;;;;;;6244168;28;20365;-69
2021/04/28 04:18:47;;;;;;;3.80;1.20;;;20.60;44.00;;;;;;6245201;28;20502;-69
2021/04/28 04:21:48;;;;;;;1.88;1.13;;;20.60;44.00;;;;;;6245370;28;20026;-69
2021/04/28 04:24:48;;;;;;;2.20;1.25;;;20.60;43.90;;;;;;6243970;28;20083;-69
2021/04/28 04:27:49;;;;;;;1.48;1.10;;;20.60;43.90;;;;;;6245145;28;20029;-69
2021/04/28 04:30:51;;;;;;;2.85;1.30;;;20.60;44.00;;;;;;6244973;28;20025;-69
2021/04/28 04:33:52;;;;;;;4.10;1.90;;;20.60;44.00;;;;;;6242981;28;20776;-69
2021/04/28 04:36:52;;;;;;;2.20;1.10;;;20.60;43.90;;;;;;6245289;28;20064;-69
2021/04/28 04:39:53;;;;;;;1.63;1.08;;;20.60;43.90;;;;;;6244634;28;20029;-69
2021/04/28 04:42:53;;;;;;;2.65;1.40;;;20.60;44.00;;;;;;6244693;28;20009;-70
2021/04/28 04:45:54;;;;;;;1.63;1.00;;;20.60;43.90;;;;;;6244543;28;20029;-69
2021/04/28 04:48:54;;;;;;;2.20;1.23;;;20.60;43.90;;;;;;6244462;28;20029;-70
2021/04/28 04:51:55;;;;;;;1.83;1.25;;;20.60;43.90;;;;;;6244924;28;20428;-69
2021/04/28 04:54:55;;;;;;;2.10;1.40;;;20.60;43.90;;;;;;6244280;28;20032;-69
2021/04/28 04:57:56;;;;;;;1.50;1.20;;;20.60;44.00;;;;;;6244557;28;20041;-69
2021/04/28 05:00:57;;;;;;;1.38;1.02;;;20.60;44.00;;;;;;6244125;28;20036;-69
2021/04/28 05:03:57;;;;;;;2.08;1.10;;;20.60;43.90;;;;;;6244558;28;20045;-69
2021/04/28 05:06:58;;;;;;;2.33;1.30;;;20.60;44.00;;;;;;6244280;28;20091;-69
2021/04/28 05:09:58;;;;;;;2.13;1.35;;;20.60;44.00;;;;;;6244362;28;20026;-69
2021/04/28 05:12:59;;;;;;;1.63;1.30;;;20.60;44.00;;;;;;6244280;28;20033;-69
2021/04/28 05:15:59;;;;;;;1.88;1.27;;;20.60;43.90;;;;;;6243932;28;20025;-69
2021/04/28 05:19:00;;;;;;;1.70;1.27;;;20.60;43.90;;;;;;6243743;28;20049;-69
2021/04/28 05:22:00;;;;;;;1.98;1.42;;;20.60;43.90;;;;;;6243940;28;20033;-70
2021/04/28 05:25:01;;;;;;;1.60;1.20;;;20.60;43.90;;;;;;6243816;28;20456;-69
2021/04/28 05:28:03;;;;;;;2.15;1.45;;;20.60;43.90;;;;;;6243569;28;20091;-69
2021/04/28 05:31:03;;;;;;;1.65;1.23;;;20.60;43.90;;;;;;6232497;28;20025;-69
2021/04/28 05:34:04;;;;;;;4.35;1.67;;;20.60;44.20;;;;;;6241326;28;20550;-69
2021/04/28 05:37:05;;;;;;;9.55;3.30;;;20.60;43.90;;;;;;6241954;28;20506;-69
2021/04/28 05:40:07;;;;;;;8.88;4.00;;;20.50;42.80;;;;;;6242427;28;20029;-69
2021/04/28 05:43:07;;;;;;;10.73;4.10;;;20.50;41.80;;;;;;6242330;28;20025;-69
2021/04/28 05:46:10;;;;;;;8.15;4.00;;;20.50;41.40;;;;;;6241234;28;20048;-69
2021/04/28 05:49:11;;;;;;;9.82;4.78;;;20.50;40.60;;;;;;6242154;28;20033;-69
2021/04/28 05:52:11;;;;;;;7.63;4.13;;;20.50;38.90;;;;;;6242331;28;20026;-69
2021/04/28 05:55:12;;;;;;;9.98;4.30;;;20.50;39.20;;;;;;6242705;28;20144;-69
2021/04/28 05:58:13;;;;;;;10.93;4.13;;;20.60;39.80;;;;;;6241522;28;20073;-69
2021/04/28 06:01:14;;;;;;;9.25;4.22;;;20.60;40.20;;;;;;6236570;28;20029;-69
2021/04/28 06:04:15;;;;;;;8.93;3.90;;;20.60;40.50;;;;;;6244066;28;20036;-69
2021/04/28 06:07:16;;;;;;;6.47;3.83;;;20.60;40.80;;;;;;6243363;28;20028;-69
2021/04/28 06:10:17;;;;;;;5.90;3.92;;;20.60;40.80;;;;;;6243551;28;20056;-69
2021/04/28 06:13:17;;;;;;;8.85;4.38;;;20.60;41.00;;;;;;6242310;28;20055;-69
2021/04/28 06:16:18;;;;;;;11.88;4.25;;;20.60;41.10;;;;;;6243589;28;20029;-69
2021/04/28 06:19:18;;;;;;;7.40;3.90;;;20.60;41.30;;;;;;6243212;28;20119;-69
2021/04/28 06:22:19;;;;;;;7.18;3.90;;;20.60;41.40;;;;;;6242721;28;20025;-69
2021/04/28 06:25:20;;;;;;;8.98;3.90;;;20.60;41.70;;;;;;6242068;28;20420;-69
2021/04/28 06:28:20;;;;;;;7.10;3.90;;;20.60;41.70;;;;;;6243242;28;20018;-69
2021/04/28 06:31:21;;;;;;;5.05;3.42;;;20.60;41.60;;;;;;6242705;28;20553;-69
2021/04/28 06:34:21;;;;;;;7.30;3.85;;;20.50;41.70;;;;;;6241923;28;20062;-69
2021/04/28 06:37:22;;;;;;;6.95;3.50;;;20.60;41.80;;;;;;6242498;28;20376;-69
2021/04/28 06:40:24;;;;;;;7.63;3.65;;;20.60;42.10;;;;;;6246987;28;20064;-69
2021/04/28 06:43:25;;;;;;;8.40;3.92;;;20.60;42.10;;;;;;6247640;28;20450;-69
2021/04/28 06:46:26;;;;;;;7.78;3.80;;;20.60;42.00;;;;;;6248408;28;20120;-69
2021/04/28 06:49:26;;;;;;;8.98;4.00;;;20.60;42.10;;;;;;6247313;28;20487;-69
2021/04/28 06:52:27;;;;;;;7.25;3.78;;;20.60;42.30;;;;;;6247262;28;20031;-70
2021/04/28 06:55:27;;;;;;;9.00;4.03;;;20.60;42.10;;;;;;6248514;28;20029;-69
2021/04/28 06:58:30;;;;;;;5.53;3.45;;;20.60;42.20;;;;;;6246685;28;20095;-69
2021/04/28 07:01:31;;;;;;;6.82;3.42;;;20.60;42.10;;;;;;6247176;28;20029;-69
2021/04/28 07:04:31;;;;;;;6.57;3.70;;;20.60;42.20;;;;;;6253132;28;20484;-69
2021/04/28 07:07:32;;;;;;;6.35;3.47;;;20.60;42.30;;;;;;6248817;28;20036;-70
2021/04/28 07:10:32;;;;;;;7.03;3.50;;;20.60;42.40;;;;;;6247464;28;20450;-70
2021/04/28 07:13:33;;;;;;;7.68;3.20;;;20.60;42.30;;;;;;6248692;28;20041;-69
2021/04/28 07:16:33;;;;;;;5.28;3.25;;;20.60;42.30;;;;;;6247851;28;20029;-69
2021/04/28 07:19:34;;;;;;;7.20;3.50;;;20.60;42.40;;;;;;6248343;28;20075;-69
2021/04/28 07:22:35;;;;;;;8.68;3.15;;;20.60;42.40;;;;;;6238131;28;20116;-70
2021/04/28 07:25:36;;;;;;;5.88;3.35;;;20.60;42.50;;;;;;6248126;28;20037;-69
2021/04/28 07:28:37;;;;;;;5.68;3.17;;;20.60;42.60;;;;;;6247053;28;20101;-69
2021/04/28 07:31:38;;;;;;;5.50;2.85;;;20.60;42.60;;;;;;6248508;28;20033;-69
2021/04/28 07:34:38;;;;;;;6.22;3.38;;;20.60;42.60;;;;;;6242067;28;20061;-69
2021/04/28 07:37:39;;;;;;;7.97;2.88;;;20.60;42.80;;;;;;6244103;28;20459;-69
2021/04/28 07:40:40;;;;;;;6.18;3.20;;;20.60;42.80;;;;;;6245035;28;20388;-69
2021/04/28 07:43:41;;;;;;;6.90;3.90;;;20.60;42.80;;;;;;6245629;28;20021;-69
2021/04/28 07:46:42;;;;;;;7.15;3.60;;;20.60;42.90;;;;;;6245727;28;20025;-69
2021/04/28 07:49:43;;;;;;;7.63;4.22;;;20.60;42.80;;;;;;6238297;28;20289;-69
2021/04/28 07:52:47;;;;;;;8.13;4.20;;;20.60;42.90;;;;;;6246979;28;20095;-69
2021/04/28 07:55:48;;;;;;;9.43;4.43;;;20.60;43.00;;;;;;6246707;28;20029;-70
2021/04/28 07:58:48;;;;;;;8.88;4.88;;;20.60;43.00;;;;;;6245838;28;20040;-70
2021/04/28 08:01:49;;;;;;;14.50;5.22;;;20.60;43.00;;;;;;6240238;28;20175;-70
2021/04/28 08:04:49;;;;;;;9.35;4.18;;;20.60;43.00;;;;;;6247460;28;20032;-69
2021/04/28 08:07:50;;;;;;;11.35;4.60;;;20.60;43.00;;;;;;6248205;28;20104;-70
2021/04/28 08:10:51;;;;;;;9.77;4.65;;;20.60;43.00;;;;;;6246706;28;20025;-69
2021/04/28 08:13:52;;;;;;;13.07;4.57;;;20.60;43.00;;;;;;6247816;28;20021;-69
2021/04/28 08:16:53;;;;;;;9.93;4.90;;;20.60;43.10;;;;;;6244746;28;20042;-69
2021/04/28 08:19:53;;;;;;;10.70;4.63;;;20.60;43.20;;;;;;6237162;28;20033;-69
2021/04/28 08:22:54;;;;;;;10.60;5.00;;;20.60;43.30;;;;;;6241446;28;20432;-69
2021/04/28 08:25:55;;;;;;;10.05;4.80;;;20.70;43.30;;;;;;6246957;28;20064;-69
2021/04/28 08:28:57;;;;;;;11.02;4.53;;;20.60;43.30;;;;;;6246955;28;20407;-69
2021/04/28 08:31:57;;;;;;;10.40;4.75;;;20.60;43.30;;;;;;6246616;28;20388;-69
2021/04/28 08:34:58;;;;;;;11.88;4.78;;;20.60;43.20;;;;;;6247005;28;20065;-69
2021/04/28 08:37:58;;;;;;;12.38;5.45;;;20.70;43.40;;;;;;6246619;28;20037;-69
2021/04/28 08:40:59;;;;;;;14.43;5.22;;;20.70;43.30;;;;;;6246594;28;20037;-69
2021/04/28 08:44:02;;;;;;;10.95;4.75;;;20.70;43.40;;;;;;6246469;28;20028;-69
2021/04/28 08:47:03;;;;;;;12.52;4.95;;;20.70;43.50;;;;;;6245703;28;20041;-69
2021/04/28 08:50:06;;;;;;;9.65;4.68;;;20.70;43.40;;;;;;6242446;28;20297;-70
2021/04/28 08:53:07;;;;;;;8.75;4.40;;;20.70;43.40;;;;;;6243621;28;20029;-69
2021/04/28 08:56:08;;;;;;;8.43;4.18;;;20.70;43.10;;;;;;6245248;28;20075;-70
2021/04/28 08:59:09;;;;;;;12.02;4.45;;;20.70;43.10;;;;;;6245897;28;20037;-70
2021/04/28 09:02:19;;;;;;;11.70;4.20;;;20.70;43.00;;;;;;6245290;28;20399;-69
2021/04/28 09:05:20;;;;;;;8.40;4.75;;;20.80;43.00;;;;;;6245607;28;20025;-69
2021/04/28 09:08:26;;;;;;;8.90;4.20;;;20.80;43.00;;;;;;6246046;28;20075;-70
2021/04/28 09:11:38;;;;;;;8.13;4.03;;;20.80;43.00;;;;;;6245557;28;20045;-69
2021/04/28 09:14:45;;;;;;;10.20;4.50;;;20.80;43.00;;;;;;6244845;28;20108;-69
2021/04/28 09:17:50;;;;;;;8.77;4.18;;;20.80;42.90;;;;;;6246071;28;20065;-69
2021/04/28 09:20:53;;;;;;;;;;;20.80;43.10;;;;;;6243634;28;20029;-70
2021/04/28 09:23:53;;;;;;;10.32;3.97;;;20.80;43.30;;;;;;6245611;28;20446;-69
2021/04/28 09:26:56;;;;;;;11.90;4.40;;;20.80;43.40;;;;;;6244754;28;20080;-70
2021/04/28 09:29:56;;;;;;;9.90;4.07;;;20.70;43.30;;;;;;6238346;28;20116;-69
2021/04/28 09:33:05;;;;;;;8.50;4.47;;;20.70;43.40;;;;;;6228468;28;20021;-69
2021/04/28 09:36:11;;;;;;;6.35;3.42;;;20.70;43.50;;;;;;6243872;28;20041;-69
2021/04/28 09:39:17;;;;;;;6.85;3.30;;;20.80;43.60;;;;;;6244925;28;20388;-69
2021/04/28 09:42:19;;;;;;;7.93;3.72;;;20.80;43.60;;;;;;6244487;28;20034;-69
2021/04/28 09:45:49;;;;;;;7.15;3.80;;;20.80;43.60;;;;;;6245647;28;20116;-69
2021/04/28 09:49:05;;;;;;;5.63;3.50;;;20.70;43.60;;;;;;6244345;28;20606;-69
2021/04/28 09:52:07;;;;;;;8.10;3.58;;;20.70;43.60;;;;;;6244563;28;20025;-69
2021/04/28 09:55:10;;;;;;;6.88;3.58;;;20.70;43.70;;;;;;6244076;28;20029;-69
2021/04/28 09:58:13;;;;;;;7.30;4.00;;;20.70;43.70;;;;;;6244355;28;20163;-69
2021/04/28 10:01:29;;;;;;;8.10;3.70;;;20.70;43.70;;;;;;6243895;28;20036;-69
2021/04/28 10:04:29;;;;;;;7.63;3.75;;;20.70;43.70;;;;;;6245401;28;20031;-68
2021/04/28 10:07:30;;;;;;;7.28;3.90;;;20.70;43.70;;;;;;6244838;28;20392;-69
2021/04/28 10:10:30;;;;;;;6.05;3.33;;;20.70;43.80;;;;;;6244644;28;20049;-69
2021/04/28 10:13:31;;;;;;;5.40;3.05;;;20.70;43.80;;;;;;6244708;28;20053;-69
2021/04/28 10:16:32;;;;;;;8.60;3.67;;;20.70;43.80;;;;;;6244390;28;20032;-69
2021/04/28 10:19:35;;;;;;;6.70;3.28;;;20.70;43.80;;;;;;6244463;28;20034;-69
2021/04/28 10:22:36;;;;;;;7.10;4.07;;;20.70;43.90;;;;;;6244708;28;20021;-70
2021/04/28 10:25:38;;;;;;;5.53;3.20;;;20.70;43.80;;;;;;6244207;28;20447;-69
2021/04/28 10:28:39;;;;;;;8.25;3.22;;;20.70;43.90;;;;;;6244747;28;20377;-69
2021/04/28 10:31:40;;;;;;;8.07;3.60;;;20.70;43.80;;;;;;6243799;28;20040;-69
2021/04/28 10:34:52;;;;;;;6.25;3.40;;;20.70;43.90;;;;;;6244666;28;20057;-69
2021/04/28 10:37:52;;;;;;;6.80;3.70;;;20.70;44.00;;;;;;6243924;28;20476;-69
2021/04/28 10:40:54;;;;;;;5.45;3.00;;;20.70;44.00;;;;;;6244240;28;20028;-69
2021/04/28 10:43:54;;;;;;;5.38;2.80;;;20.70;44.10;;;;;;6244476;28;20298;-69
2021/04/28 10:47:14;;;;;;;7.00;3.42;;;20.70;44.10;;;;;;6249338;28;20030;-69
2021/04/28 10:50:22;;;;;;;6.65;3.60;;;20.70;44.20;;;;;;6244137;28;20407;-69
2021/04/28 10:53:26;;;;;;;5.70;3.05;;;20.70;44.20;;;;;;6249502;28;20376;-69
2021/04/28 10:56:26;;;;;;;7.68;3.95;;;20.70;44.20;;;;;;6243754;28;20025;-70
2021/04/28 10:59:34;;;;;;;11.52;5.30;;;20.70;44.30;;;;;;6243776;28;20080;-69
2021/04/28 11:02:35;;;;;;;8.15;3.97;;;20.70;44.30;;;;;;6244150;28;20395;-69
2021/04/28 11:05:35;;;;;;;31.90;13.07;;;20.70;44.30;;;;;;6244827;28;20029;-69
2021/04/28 11:08:36;;;;;;;12.13;5.15;;;20.70;44.70;;;;;;6243976;28;20080;-69
2021/04/28 11:11:45;;;;;;;14.45;6.53;;;20.70;44.30;;;;;;6243303;28;20575;-69
2021/04/28 11:14:46;;;;;;;16.17;7.00;;;20.70;44.40;;;;;;6241553;28;20038;-69
2021/04/28 11:17:47;;;;;;;24.33;8.90;;;20.70;44.40;;;;;;6242925;28;20045;-69
2021/04/28 11:21:12;;;;;;;27.02;9.90;;;20.70;44.50;;;;;;6242136;28;20021;-69
2021/04/28 11:24:14;;;;;;;35.50;12.93;;;20.70;44.50;;;;;;6242566;28;20172;-69
2021/04/28 11:27:43;;;;;;;48.55;15.63;;;20.70;44.60;;;;;;6246002;28;20264;-69
2021/04/28 11:30:50;;;;;;;39.25;14.68;;;20.70;44.60;;;;;;6246454;28;20017;-69
2021/04/28 11:33:50;;;;;;;33.72;14.20;;;20.70;44.60;;;;;;6238312;28;20045;-69
2021/04/28 11:36:52;;;;;;;43.70;14.30;;;20.70;44.70;;;;;;6247324;28;20072;-69
2021/04/28 11:39:52;;;;;;;45.60;16.60;;;20.70;44.80;;;;;;6245255;28;20025;-70
2021/04/28 11:42:53;;;;;;;40.08;15.00;;;20.70;44.70;;;;;;6241552;28;20052;-69
2021/04/28 11:46:00;;;;;;;41.80;15.27;;;20.70;44.70;;;;;;6242235;28;20080;-70
2021/04/28 11:49:02;;;;;;;38.28;14.02;;;20.70;44.70;;;;;;6222206;28;20033;-71
2021/04/28 11:52:03;;;;;;;33.03;12.93;;;20.80;44.80;;;;;;6225068;28;20057;-70
2021/04/28 11:55:04;;;;;;;30.52;12.18;;;20.80;45.10;;;;;;6241803;28;20048;-70
2021/04/28 11:58:27;;;;;;;31.50;11.93;;;20.80;44.80;;;;;;6245837;28;20908;-67
2021/04/28 12:01:30;;;;;;;30.17;11.00;;;20.80;44.80;;;;;;6241192;28;20025;-67
2021/04/28 12:04:41;;;;;;;25.50;10.82;;;20.80;44.70;;;;;;6229704;28;20049;-67
2021/04/28 12:07:48;;;;;;;23.73;10.27;;;20.80;44.70;;;;;;6245856;28;20035;-66
2021/04/28 12:10:58;;;;;;;27.00;9.70;;;20.80;44.70;;;;;;6244139;28;20044;-67
2021/04/28 12:13:59;;;;;;;22.33;8.90;;;20.80;44.70;;;;;;6244706;28;20116;-66
2021/04/28 12:17:00;;;;;;;29.70;10.50;;;20.70;44.60;;;;;;6243458;28;20552;-67
2021/04/28 12:20:02;;;;;;;21.58;9.35;;;20.80;44.70;;;;;;6246077;28;20033;-67
2021/04/28 12:23:02;;;;;;;19.33;8.57;;;20.80;44.60;;;;;;6245636;28;20443;-67
2021/04/28 12:26:07;;;;;;;19.52;8.35;;;20.80;44.60;;;;;;6246964;28;20025;-67
2021/04/28 12:29:20;;;;;;;18.90;7.78;;;20.70;44.50;;;;;;6243697;28;20029;-67
2021/04/28 12:32:25;;;;;;;19.70;8.25;;;20.80;44.60;;;;;;6245193;28;20064;-67
2021/04/28 12:35:29;;;;;;;19.25;7.88;;;20.80;44.60;;;;;;6243142;28;20077;-67
2021/04/28 12:38:29;;;;;;;15.93;7.57;;;20.80;44.80;;;;;;6245412;28;20076;-67
2021/04/28 12:41:30;;;;;;;15.95;6.78;;;20.80;44.40;;;;;;6245435;28;20040;-67
2021/04/28 12:44:33;;;;;;;16.70;7.25;;;20.80;44.30;;;;;;6245276;28;20545;-67
2021/04/28 12:47:34;;;;;;;17.10;6.50;;;20.70;44.10;;;;;;6245365;28;20112;-66
2021/04/28 12:50:35;;;;;;;15.55;6.68;;;20.70;44.10;;;;;;6245412;28;20025;-67
2021/04/28 12:53:42;;;;;;;11.45;6.00;;;20.70;44.00;;;;;;6242912;28;20422;-67
2021/04/28 12:56:46;;;;;;;12.30;6.60;;;20.80;44.10;;;;;;6245787;28;20117;-67
2021/04/28 13:00:06;;;;;;;13.67;6.40;;;20.70;44.10;;;;;;6245049;28;20013;-67
2021/04/28 13:03:30;;;;;;;12.32;5.22;;;20.80;44.20;;;;;;6243883;28;20033;-66
2021/04/28 13:06:32;;;;;;;10.38;4.80;;;20.70;44.10;;;;;;6243586;28;20096;-67
2021/04/28 13:09:32;;;;;;;9.73;4.80;;;20.80;44.20;;;;;;6244440;28;20025;-67
2021/04/28 13:12:35;;;;;;;7.40;3.97;;;20.70;44.10;;;;;;6244863;28;20022;-66
2021/04/28 13:15:38;;;;;;;8.73;4.75;;;20.80;44.20;;;;;;6244889;28;20527;-67
2021/04/28 13:18:51;;;;;;;8.40;4.57;;;20.80;44.20;;;;;;6243395;28;20033;-67
2021/04/28 13:21:55;;;;;;;8.23;4.50;;;20.70;44.10;;;;;;6243152;28;20031;-67
2021/04/28 13:24:56;;;;;;;9.85;4.78;;;20.80;44.20;;;;;;6244201;28;20403;-67
2021/04/28 13:27:56;;;;;;;9.18;4.78;;;20.80;44.30;;;;;;6244971;28;20033;-67
2021/04/28 13:31:23;;;;;;;10.27;4.18;;;20.80;44.30;;;;;;6244201;28;20071;-66
2021/04/28 13:34:29;;;;;;;9.68;3.70;;;20.70;44.20;;;;;;6243933;28;20053;-67
2021/04/28 13:37:29;;;;;;;9.60;4.57;;;20.70;44.20;;;;;;6245164;28;20083;-67
2021/04/28 13:40:39;;;;;;;6.13;3.75;;;20.70;44.20;;;;;;6243156;28;20037;-67
2021/04/28 13:43:40;;;;;;;5.75;3.28;;;20.70;44.30;;;;;;6242454;28;20075;-66
2021/04/28 13:46:40;;;;;;;6.70;3.80;;;20.80;44.40;;;;;;6243981;28;20029;-67
2021/04/28 13:49:41;;;;;;;7.90;3.50;;;20.70;44.30;;;;;;6243528;28;20033;-67
2021/04/28 13:52:42;;;;;;;7.10;3.42;;;20.70;44.30;;;;;;6243647;28;20040;-67
2021/04/28 13:55:42;;;;;;;5.22;3.20;;;20.70;44.30;;;;;;6242146;28;20113;-67
2021/04/28 13:58:43;;;;;;;6.72;3.22;;;20.80;44.40;;;;;;6242884;28;20033;-67
2021/04/28 14:01:44;;;;;;;6.38;3.65;;;20.70;45.10;;;;;;6244143;28;20079;-67
2021/04/28 14:04:44;;;;;;;6.20;3.33;;;20.70;44.40;;;;;;6244048;28;20155;-67
2021/04/28 14:07:45;;;;;;;5.15;2.97;;;20.70;44.40;;;;;;6243258;28;20052;-67
2021/04/28 14:10:46;;;;;;;5.13;3.00;;;20.70;44.40;;;;;;6244015;28;20025;-67
2021/04/28 14:13:46;;;;;;;5.18;3.03;;;20.80;44.50;;;;;;6242285;28;20029;-67
2021/04/28 14:16:47;;;;;;;5.65;3.20;;;20.70;44.40;;;;;;6241952;28;20040;-67
2021/04/28 14:19:47;;;;;;;5.30;2.90;;;20.70;44.50;;;;;;6243044;28;20017;-67
2021/04/28 14:22:48;;;;;;;4.95;2.85;;;20.70;44.40;;;;;;6243424;28;20026;-67
2021/04/28 14:25:48;;;;;;;6.13;3.10;;;20.70;44.40;;;;;;6243830;28;20499;-67
2021/04/28 14:28:49;;;;;;;5.07;2.78;;;20.70;44.30;;;;;;6244514;28;20037;-67
2021/04/28 14:31:50;;;;;;;7.30;3.22;;;20.70;44.30;;;;;;6243577;28;20022;-67
2021/04/28 14:34:50;;;;;;;4.68;2.95;;;20.70;44.30;;;;;;6240644;28;20084;-67
2021/04/28 14:37:51;;;;;;;3.70;2.30;;;20.70;44.20;;;;;;6243455;28;20132;-67
2021/04/28 14:40:51;;;;;;;5.18;2.70;;;20.70;44.30;;;;;;6243300;28;20067;-67
2021/04/28 14:43:52;;;;;;;5.22;2.92;;;20.70;44.30;;;;;;6243058;28;20026;-67
2021/04/28 14:46:52;;;;;;;5.65;3.05;;;20.70;44.30;;;;;;6240902;28;20025;-66
2021/04/28 14:49:55;;;;;;;4.93;2.80;;;20.70;44.30;;;;;;6243363;28;20075;-67
2021/04/28 14:52:55;;;;;;;4.43;2.53;;;20.70;44.30;;;;;;6218178;28;20094;-67
2021/04/28 14:55:56;;;;;;;4.57;2.47;;;20.80;44.30;;;;;;6232229;28;20400;-67
2021/04/28 14:58:57;;;;;;;4.75;2.53;;;20.70;44.30;;;;;;6242082;28;20033;-67
2021/04/28 15:01:58;;;;;;;6.13;2.58;;;20.80;44.40;;;;;;6247304;28;20064;-67
2021/04/28 15:04:58;;;;;;;3.47;2.10;;;20.70;44.40;;;;;;6247092;28;20036;-66
2021/04/28 15:07:59;;;;;;;3.35;2.35;;;20.80;44.50;;;;;;6247610;28;20018;-67
2021/04/28 15:11:00;;;;;;;3.70;2.25;;;20.80;44.50;;;;;;6246481;28;20033;-67
2021/04/28 15:14:00;;;;;;;3.90;2.38;;;20.80;44.50;;;;;;6247459;28;20021;-67
2021/04/28 15:17:01;;;;;;;4.20;2.53;;;20.70;44.50;;;;;;6246991;28;20022;-67
2021/04/28 15:20:03;;;;;;;4.25;2.42;;;20.70;44.50;;;;;;6247655;28;20034;-67
2021/04/28 15:23:06;;;;;;;2.70;2.00;;;20.70;44.50;;;;;;6246390;28;20116;-66
2021/04/28 15:26:07;;;;;;;3.15;2.25;;;20.70;44.50;;;;;;6246961;28;20033;-67
2021/04/28 15:29:08;;;;;;;2.78;2.05;;;20.80;44.60;;;;;;6247422;28;20121;-67
2021/04/28 15:32:11;;;;;;;3.35;1.92;;;20.70;44.50;;;;;;6247148;28;20025;-67
2021/04/28 15:35:12;;;;;;;3.17;2.10;;;20.70;44.50;;;;;;6244707;28;20037;-67
2021/04/28 15:38:17;;;;;;;3.55;2.17;;;20.70;44.50;;;;;;6247498;28;20037;-66
2021/04/28 15:41:18;;;;;;;3.35;2.30;;;20.70;44.50;;;;;;6247136;28;20176;-66
2021/04/28 15:44:19;;;;;;;3.08;2.10;;;20.70;44.60;;;;;;6247711;28;20083;-67
2021/04/28 15:47:20;;;;;;;3.45;2.22;;;20.70;44.60;;;;;;6246024;28;20017;-67